Time,TemperatureF,DewpointF,PressureIn,WindDirection,WindDirectionDegrees,WindSpeedMPH,WindSpeedGustMPH,Humidity,HourlyPrecipIn,Conditions,Clouds,dailyrainin,SoftwareType,DateUTC
2013-07-24 00:01:00,68.5,67.0,30.01,ENE,63,0.0,0.0,96,0.00,,,0.00,weatherlink.com 1.10,2013-07-24 04:01:00,
2013-07-24 00:16:00,68.3,68.0,30.01,ENE,63,0.0,0.0,97,0.00,,,0.00,weatherlink.com 1.10,2013-07-24 04:16:00,
2013-07-24 00:31:00,68.0,67.0,30.01,ENE,64,0.0,0.0,97,0.00,,,0.00,weatherlink.com 1.10,2013-07-24 04:31:00,
2013-07-24 00:46:00,67.9,67.0,30.01,ENE,64,0.0,0.0,97,0.00,,,0.00,weatherlink.com 1.10,2013-07-24 04:46:00,
2013-07-24 01:01:00,67.7,67.0,30.00,ENE,63,0.0,0.0,97,0.00,,,0.00,weatherlink.com 1.10,2013-07-24 05:01:00,
2013-07-24 01:16:00,67.5,67.0,30.00,ENE,64,0.0,0.0,97,0.00,,,0.00,weatherlink.com 1.10,2013-07-24 05:16:00,
2013-07-24 01:31:00,67.3,67.0,30.00,ENE,63,0.0,0.0,97,0.00,,,0.00,weatherlink.com 1.10,2013-07-24 05:31:00,
2013-07-24 01:46:00,67.1,67.0,29.99,ENE,64,0.0,0.0,98,0.00,,,0.00,weatherlink.com 1.10,2013-07-24 05:46:00,
2013-07-24 02:01:00,66.9,66.0,29.99,ENE,63,0.0,0.0,97,0.00,,,0.00,weatherlink.com 1.10,2013-07-24 06:01:00,
2013-07-24 02:16:00,66.8,66.0,29.98,ENE,60,0.0,0.0,98,0.00,,,0.00,weatherlink.com 1.10,2013-07-24 06:16:00,
2013-07-24 02:31:00,66.7,66.0,29.98,ENE,59,0.0,0.0,98,0.00,,,0.00,weatherlink.com 1.10,2013-07-24 06:31:00,
2013-07-24 02:46:00,66.7,66.0,29.98,ENE,60,0.0,0.0,98,0.00,,,0.00,weatherlink.com 1.10,2013-07-24 06:46:00,
2013-07-24 03:01:00,66.7,66.0,29.97,ENE,59,0.0,0.0,98,0.00,,,0.00,weatherlink.com 1.10,2013-07-24 07:01:00,
2013-07-24 03:16:00,66.7,66.0,29.97,ENE,59,0.0,0.0,98,0.00,,,0.00,weatherlink.com 1.10,2013-07-24 07:16:00,
2013-07-24 03:31:00,66.9,66.0,29.97,ENE,59,0.0,0.0,98,0.00,,,0.00,weatherlink.com 1.10,2013-07-24 07:31:00,
2013-07-24 03:46:00,66.8,66.0,29.97,ENE,59,0.0,0.0,98,0.00,,,0.00,weatherlink.com 1.10,2013-07-24 07:46:00,
2013-07-24 04:01:00,67.0,67.0,29.97,ENE,74,0.0,0.0,98,0.00,,,0.00,weatherlink.com 1.10,2013-07-24 08:01:00,
2013-07-24 04:16:00,66.7,66.0,29.96,ENE,61,0.0,1.0,98,0.00,,,0.00,weatherlink.com 1.10,2013-07-24 08:16:00,
2013-07-24 04:46:00,66.6,66.0,29.96,ESE,120,0.0,1.0,98,0.00,,,0.00,weatherlink.com 1.10,2013-07-24 08:46:00,
2013-07-24 05:01:00,66.4,66.0,29.95,SE,133,0.0,0.0,98,0.00,,,0.00,weatherlink.com 1.10,2013-07-24 09:01:00,
2013-07-24 05:16:00,66.5,66.0,29.96,SE,132,0.0,0.0,98,0.00,,,0.00,weatherlink.com 1.10,2013-07-24 09:16:00,
2013-07-24 05:31:00,66.5,66.0,29.96,SE,132,0.0,0.0,98,0.00,,,0.00,weatherlink.com 1.10,2013-07-24 09:31:00,
2013-07-24 05:46:00,66.7,66.0,29.97,SSE,167,0.0,1.0,97,0.00,,,0.00,weatherlink.com 1.10,2013-07-24 09:46:00,
2013-07-24 06:01:00,66.7,66.0,29.98,SSE,167,0.0,0.0,97,0.00,,,0.00,weatherlink.com 1.10,2013-07-24 10:01:00,
2013-07-24 06:16:00,66.6,66.0,29.98,SSE,167,0.0,0.0,97,0.00,,,0.00,weatherlink.com 1.10,2013-07-24 10:16:00,
2013-07-24 06:31:00,66.5,66.0,29.98,SSE,167,0.0,0.0,97,0.00,,,0.00,weatherlink.com 1.10,2013-07-24 10:31:00,
2013-07-24 06:47:00,66.6,66.0,29.99,SSE,167,0.0,0.0,97,0.00,,,0.00,weatherlink.com 1.10,2013-07-24 10:47:00,
2013-07-24 07:02:00,66.8,66.0,29.99,SSW,201,0.0,0.0,97,0.00,,,0.00,weatherlink.com 1.10,2013-07-24 11:02:00,
2013-07-24 07:17:00,66.9,66.0,29.99,SW,224,0.0,1.0,97,0.00,,,0.00,weatherlink.com 1.10,2013-07-24 11:17:00,
2013-07-24 07:31:00,66.9,66.0,30.00,SW,225,0.0,1.0,96,0.00,,,0.00,weatherlink.com 1.10,2013-07-24 11:31:00,
2013-07-24 07:46:00,66.8,66.0,30.00,SSE,158,0.0,1.0,96,0.00,,,0.00,weatherlink.com 1.10,2013-07-24 11:46:00,
2013-07-24 08:01:00,67.0,66.0,30.01,SSE,158,0.0,1.0,96,0.00,,,0.00,weatherlink.com 1.10,2013-07-24 12:01:00,
2013-07-24 08:16:00,67.1,66.0,30.00,ESE,115,0.0,1.0,96,0.00,,,0.00,weatherlink.com 1.10,2013-07-24 12:16:00,
2013-07-24 08:32:00,67.8,66.0,30.01,SE,143,0.0,1.0,95,0.00,,,0.00,weatherlink.com 1.10,2013-07-24 12:32:00,
2013-07-24 08:46:00,68.1,67.0,30.01,NNW,346,0.0,1.0,95,0.00,,,0.00,weatherlink.com 1.10,2013-07-24 12:46:00,
2013-07-24 09:02:00,68.6,67.0,30.02,East,79,0.0,1.0,94,0.00,,,0.00,weatherlink.com 1.10,2013-07-24 13:02:00,
2013-07-24 09:17:00,70.7,68.0,30.02,ESE,121,2.0,2.0,91,0.00,,,0.00,weatherlink.com 1.10,2013-07-24 13:17:00,
2013-07-24 09:32:00,72.4,69.0,30.01,SE,132,0.0,2.0,89,0.00,,,0.00,weatherlink.com 1.10,2013-07-24 13:32:00,
2013-07-24 09:47:00,75.0,72.0,30.01,ENE,65,0.0,2.0,89,0.00,,,0.00,weatherlink.com 1.10,2013-07-24 13:47:00,
2013-07-24 10:02:00,75.3,69.0,30.01,SE,127,2.0,3.0,81,0.00,,,0.00,weatherlink.com 1.10,2013-07-24 14:02:00,
2013-07-24 10:17:00,77.0,70.0,30.01,SE,134,2.0,2.0,80,0.00,,,0.00,weatherlink.com 1.10,2013-07-24 14:17:00,
2013-07-24 10:32:00,79.1,70.0,30.02,ESE,108,2.0,3.0,73,0.00,,,0.00,weatherlink.com 1.10,2013-07-24 14:32:00,
2013-07-24 10:47:00,79.8,70.0,30.01,SSE,162,3.0,4.0,73,0.00,,,0.00,weatherlink.com 1.10,2013-07-24 14:47:00,
2013-07-24 11:02:00,80.8,72.0,30.01,South,183,0.0,5.0,74,0.00,,,0.00,weatherlink.com 1.10,2013-07-24 15:02:00,
2013-07-24 11:17:00,80.6,70.0,30.00,SSE,165,0.0,5.0,70,0.00,,,0.00,weatherlink.com 1.10,2013-07-24 15:17:00,
2013-07-24 11:33:00,82.8,72.0,30.00,NNE,32,0.0,2.0,70,0.00,,,0.00,weatherlink.com 1.10,2013-07-24 15:33:00,
2013-07-24 11:47:00,83.9,70.0,30.00,NE,51,2.0,3.0,63,0.00,,,0.00,weatherlink.com 1.10,2013-07-24 15:47:00,
2013-07-24 12:02:00,84.3,68.0,30.01,East,94,0.0,5.0,59,0.00,,,0.00,weatherlink.com 1.10,2013-07-24 16:02:00,
2013-07-24 12:17:00,84.1,69.0,30.00,NNE,32,2.0,5.0,61,0.00,,,0.00,weatherlink.com 1.10,2013-07-24 16:17:00,
2013-07-24 12:32:00,82.6,70.0,30.00,SE,138,1.0,5.0,65,0.00,,,0.00,weatherlink.com 1.10,2013-07-24 16:32:00,
2013-07-24 12:47:00,82.9,67.0,30.01,ENE,65,2.0,4.0,58,0.00,,,0.00,weatherlink.com 1.10,2013-07-24 16:47:00,
2013-07-24 13:02:00,82.4,67.0,30.01,NE,53,0.0,3.0,60,0.00,,,0.00,weatherlink.com 1.10,2013-07-24 17:02:00,
2013-07-24 13:17:00,83.6,68.0,30.00,SSW,198,2.0,5.0,60,0.00,,,0.00,weatherlink.com 1.10,2013-07-24 17:17:00,
2013-07-24 13:32:00,84.2,68.0,30.00,SSE,155,0.0,4.0,59,0.00,,,0.00,weatherlink.com 1.10,2013-07-24 17:32:00,
2013-07-24 13:47:00,84.6,71.0,30.00,SSE,162,0.0,2.0,63,0.00,,,0.00,weatherlink.com 1.10,2013-07-24 17:47:00,
2013-07-24 14:02:00,84.1,71.0,29.99,NNW,328,1.0,4.0,65,0.00,,,0.00,weatherlink.com 1.10,2013-07-24 18:02:00,
2013-07-24 14:17:00,83.2,69.0,29.99,SSE,165,0.0,6.0,62,0.00,,,0.00,weatherlink.com 1.10,2013-07-24 18:17:00,
2013-07-24 14:32:00,81.9,71.0,29.98,ENE,63,0.0,1.0,70,0.00,,,0.00,weatherlink.com 1.10,2013-07-24 18:32:00,
2013-07-24 14:47:00,80.7,69.0,29.98,NNW,347,0.0,1.0,68,0.00,,,0.00,weatherlink.com 1.10,2013-07-24 18:47:00,
2013-07-24 15:02:00,80.5,69.0,29.98,WNW,294,1.0,2.0,69,0.00,,,0.00,weatherlink.com 1.10,2013-07-24 19:02:00,
2013-07-24 15:17:00,78.8,68.0,29.99,WSW,246,1.0,5.0,70,0.00,,,0.00,weatherlink.com 1.10,2013-07-24 19:17:00,
2013-07-24 15:32:00,75.4,65.0,29.99,WSW,250,0.0,5.0,69,0.00,,,0.00,weatherlink.com 1.10,2013-07-24 19:32:00,
2013-07-24 15:47:00,74.2,64.0,30.00,West,259,3.0,6.0,70,0.00,,,0.00,weatherlink.com 1.10,2013-07-24 19:47:00,
2013-07-24 16:02:00,72.4,64.0,30.00,WNW,302,0.0,4.0,75,0.00,,,0.00,weatherlink.com 1.10,2013-07-24 20:02:00,
2013-07-24 16:17:00,70.9,64.0,30.00,West,270,0.0,3.0,80,0.00,,,0.00,weatherlink.com 1.10,2013-07-24 20:17:00,
2013-07-24 16:32:00,70.6,66.0,29.99,East,96,0.0,2.0,85,0.00,,,0.00,weatherlink.com 1.10,2013-07-24 20:32:00,
2013-07-24 16:47:00,69.8,66.0,30.00,SSW,205,0.0,4.0,87,0.00,,,0.00,weatherlink.com 1.10,2013-07-24 20:47:00,
2013-07-24 17:02:00,70.0,65.0,29.99,WSW,256,1.0,2.0,83,0.00,,,0.00,weatherlink.com 1.10,2013-07-24 21:02:00,
2013-07-24 17:17:00,68.9,65.0,29.99,ESE,115,0.0,4.0,88,0.00,,,0.00,weatherlink.com 1.10,2013-07-24 21:17:00,
2013-07-24 17:32:00,68.6,66.0,29.99,East,85,0.0,1.0,92,0.00,,,0.00,weatherlink.com 1.10,2013-07-24 21:32:00,
2013-07-24 17:47:00,68.6,66.0,29.98,SSE,155,0.0,1.0,90,0.00,,,0.00,weatherlink.com 1.10,2013-07-24 21:47:00,
2013-07-24 18:02:00,68.3,66.0,29.98,SSE,155,0.0,1.0,91,0.01,,,0.01,weatherlink.com 1.10,2013-07-24 22:02:00,
2013-07-24 18:17:00,68.3,66.0,29.98,SSE,155,0.0,0.0,92,0.01,,,0.01,weatherlink.com 1.10,2013-07-24 22:17:00,
2013-07-24 18:32:00,68.5,67.0,29.98,SSE,153,0.0,1.0,94,0.02,,,0.02,weatherlink.com 1.10,2013-07-24 22:32:00,
2013-07-24 18:47:00,68.6,66.0,29.99,SW,225,0.0,1.0,92,0.02,,,0.02,weatherlink.com 1.10,2013-07-24 22:47:00,
2013-07-24 19:02:00,68.4,66.0,29.98,West,264,0.0,3.0,92,0.01,,,0.02,weatherlink.com 1.10,2013-07-24 23:02:00,
2013-07-24 19:17:00,69.2,66.0,30.00,NW,309,0.0,1.0,90,0.01,,,0.02,weatherlink.com 1.10,2013-07-24 23:17:00,
2013-07-24 19:32:00,69.0,66.0,30.00,East,79,0.0,3.0,90,0.00,,,0.02,weatherlink.com 1.10,2013-07-24 23:32:00,
2013-07-24 19:47:00,68.9,66.0,30.00,ENE,77,0.0,1.0,91,0.00,,,0.02,weatherlink.com 1.10,2013-07-24 23:47:00,
2013-07-24 20:02:00,68.4,66.0,30.01,ENE,77,0.0,0.0,93,0.00,,,0.02,weatherlink.com 1.10,2013-07-25 00:02:00,
2013-07-24 20:17:00,67.9,67.0,30.00,East,79,0.0,1.0,95,0.00,,,0.02,weatherlink.com 1.10,2013-07-25 00:17:00,
2013-07-24 20:32:00,67.8,66.0,30.00,ESE,113,0.0,1.0,95,0.00,,,0.02,weatherlink.com 1.10,2013-07-25 00:32:00,
2013-07-24 20:47:00,67.7,66.0,30.00,ESE,113,0.0,0.0,95,0.00,,,0.02,weatherlink.com 1.10,2013-07-25 00:47:00,
2013-07-24 21:02:00,67.5,66.0,30.00,East,82,0.0,0.0,96,0.00,,,0.02,weatherlink.com 1.10,2013-07-25 01:02:00,
2013-07-24 21:17:00,67.3,66.0,30.01,East,82,0.0,1.0,96,0.00,,,0.02,weatherlink.com 1.10,2013-07-25 01:17:00,
2013-07-24 21:32:00,67.3,66.0,30.01,East,82,0.0,0.0,96,0.00,,,0.02,weatherlink.com 1.10,2013-07-25 01:32:00,
2013-07-24 21:48:00,67.0,66.0,30.01,East,82,0.0,0.0,96,0.00,,,0.02,weatherlink.com 1.10,2013-07-25 01:48:00,
2013-07-24 22:03:00,66.7,66.0,30.01,East,82,0.0,0.0,96,0.00,,,0.02,weatherlink.com 1.10,2013-07-25 02:03:00,
2013-07-24 22:18:00,66.5,66.0,30.02,East,82,0.0,0.0,97,0.00,,,0.02,weatherlink.com 1.10,2013-07-25 02:18:00,
2013-07-24 22:33:00,66.4,66.0,30.02,East,82,0.0,0.0,97,0.00,,,0.02,weatherlink.com 1.10,2013-07-25 02:33:00,
2013-07-24 22:48:00,66.1,65.0,30.03,East,82,0.0,0.0,97,0.00,,,0.02,weatherlink.com 1.10,2013-07-25 02:48:00,
2013-07-24 23:03:00,65.9,65.0,30.03,East,82,0.0,0.0,97,0.00,,,0.02,weatherlink.com 1.10,2013-07-25 03:03:00,
2013-07-24 23:18:00,65.5,65.0,30.03,East,82,0.0,0.0,97,0.00,,,0.02,weatherlink.com 1.10,2013-07-25 03:18:00,
2013-07-24 23:48:00,64.8,64.0,30.04,East,82,0.0,0.0,97,0.00,,,0.02,weatherlink.com 1.10,2013-07-25 03:48:00,